Time;durP1;ratioP1;P1;durP2;ratioP2;P2;SDS_P1;SDS_P2;PMS_P1;PMS_P2;Temp;Humidity;BMP_temperature;BMP_pressure;BME280_temperature;BME280_humidity;BME280_pressure;Samples;Min_cycle;Max_cycle;Signal;HPM_P1;HPM_P2
2021/08/10 00:01:33;;;;;;;4.80;3.30;;;;;;;;;;3606364;39;20440;-83
2021/08/10 00:03:59;;;;;;;7.10;4.10;;;;;;;;;;3597578;39;20437;-82
2021/08/10 00:06:25;;;;;;;6.40;3.20;;;;;;;;;;3596771;39;20467;-83
2021/08/10 00:08:51;;;;;;;8.83;4.57;;;;;;;;;;3585771;39;21287;-83
2021/08/10 00:11:17;;;;;;;9.20;3.50;;;;;;;;;;3582372;39;20792;-83
2021/08/10 00:13:43;;;;;;;7.00;3.73;;;;;;;;;;3579313;39;20524;-83
2021/08/10 00:16:10;;;;;;;5.50;3.30;;;;;;;;;;3585264;39;20395;-83
2021/08/10 00:18:37;;;;;;;4.37;3.10;;;;;;;;;;3586357;39;21173;-83
2021/08/10 00:21:03;;;;;;;8.77;3.47;;;;;;;;;;3596197;39;20437;-83
2021/08/10 00:23:29;;;;;;;4.53;3.13;;;;;;;;;;3596798;39;20493;-83
2021/08/10 00:25:55;;;;;;;4.07;3.10;;;;;;;;;;3594404;39;20484;-83
2021/08/10 00:28:21;;;;;;;10.23;3.50;;;;;;;;;;3594883;39;20457;-83
2021/08/10 00:30:48;;;;;;;7.10;3.40;;;;;;;;;;3603512;39;20397;-83
2021/08/10 00:33:15;;;;;;;5.80;3.70;;;;;;;;;;3583399;39;20396;-83
2021/08/10 00:35:41;;;;;;;4.40;3.87;;;;;;;;;;3588020;39;20841;-83
2021/08/10 00:38:13;;;;;;;8.17;3.83;;;;;;;;;;3586568;39;20479;-83
2021/08/10 00:40:40;;;;;;;4.53;3.47;;;;;;;;;;3595390;39;20440;-83
2021/08/10 00:43:26;;;;;;;4.30;2.63;;;;;;;;;;3582570;39;20408;-83
2021/08/10 00:45:52;;;;;;;4.63;3.27;;;;;;;;;;3594329;39;20400;-83
2021/08/10 00:48:20;;;;;;;7.67;3.17;;;;;;;;;;3587952;39;20467;-83
2021/08/10 00:50:46;;;;;;;5.37;3.27;;;;;;;;;;3594356;39;20409;-83
2021/08/10 00:53:12;;;;;;;4.30;3.20;;;;;;;;;;3594206;39;20408;-82
2021/08/10 00:55:38;;;;;;;4.23;3.80;;;;;;;;;;3595933;39;20388;-83
2021/08/10 00:58:06;;;;;;;8.50;3.50;;;;;;;;;;3597161;39;21180;-83
2021/08/10 01:00:32;;;;;;;7.20;3.27;;;;;;;;;;3604032;39;20405;-82
2021/08/10 01:02:58;;;;;;;10.33;3.97;;;;;;;;;;3594027;39;20412;-82
2021/08/10 01:05:27;;;;;;;5.70;3.90;;;;;;;;;;3662443;22;20978;-80
2021/08/10 01:07:56;;;;;;;6.87;2.90;;;;;;;;;;3597552;39;21220;-80
2021/08/10 01:10:29;;;;;;;6.20;3.40;;;;;;;;;;3614087;39;20510;-80
2021/08/10 01:13:19;;;;;;;9.17;4.13;;;;;;;;;;3596866;39;20453;-80
2021/08/10 01:15:47;;;;;;;5.20;3.10;;;;;;;;;;3595021;39;20437;-79
2021/08/10 01:18:21;;;;;;;6.60;4.07;;;;;;;;;;3593466;39;20416;-79
2021/08/10 01:20:47;;;;;;;7.57;4.40;;;;;;;;;;3600454;39;20772;-78
2021/08/10 01:23:15;;;;;;;7.93;3.90;;;;;;;;;;3605541;39;20475;-80
2021/08/10 01:26:03;;;;;;;5.80;4.10;;;;;;;;;;3607347;39;20401;-79
2021/08/10 01:28:35;;;;;;;6.40;3.40;;;;;;;;;;3592194;39;20400;-79
2021/08/10 01:31:07;;;;;;;7.70;3.90;;;;;;;;;;3614414;39;20389;-79
2021/08/10 01:33:38;;;;;;;8.90;4.57;;;;;;;;;;3605579;39;20423;-79
2021/08/10 01:36:05;;;;;;;6.40;4.27;;;;;;;;;;3588987;39;20486;-79
2021/08/10 01:38:31;;;;;;;12.57;4.40;;;;;;;;;;3597344;39;20399;-79
2021/08/10 01:40:59;;;;;;;8.90;4.10;;;;;;;;;;3588336;39;20970;-79
2021/08/10 01:43:26;;;;;;;4.97;3.77;;;;;;;;;;3596019;39;20488;-79
2021/08/10 01:45:52;;;;;;;9.40;4.53;;;;;;;;;;3600489;39;21211;-79
2021/08/10 01:48:19;;;;;;;9.30;3.90;;;;;;;;;;3596381;39;20440;-80
2021/08/10 01:50:46;;;;;;;6.83;4.20;;;;;;;;;;3607455;39;20390;-79
2021/08/10 01:53:12;;;;;;;8.53;4.73;;;;;;;;;;3598259;39;20518;-79
2021/08/10 01:55:39;;;;;;;7.77;4.40;;;;;;;;;;3597016;39;21190;-79
2021/08/10 01:58:06;;;;;;;9.27;4.60;;;;;;;;;;3605732;39;20431;-79
2021/08/10 02:00:33;;;;;;;6.20;4.47;;;;;;;;;;3606254;39;20434;-79
2021/08/10 02:03:00;;;;;;;6.97;4.40;;;;;;;;;;3596210;39;20410;-79
2021/08/10 02:05:26;;;;;;;8.17;4.53;;;;;;;;;;3596057;39;20416;-81
2021/08/10 02:07:52;;;;;;;17.53;4.60;;;;;;;;;;3589079;39;20839;-79
2021/08/10 02:10:18;;;;;;;6.70;4.00;;;;;;;;;;3600872;39;20399;-79
2021/08/10 02:12:44;;;;;;;10.23;4.93;;;;;;;;;;3597458;39;20415;-79
2021/08/10 02:15:10;;;;;;;5.20;4.27;;;;;;;;;;3606644;39;20419;-80
2021/08/10 02:17:36;;;;;;;5.00;3.70;;;;;;;;;;3606712;39;20412;-79
2021/08/10 02:20:04;;;;;;;5.80;4.50;;;;;;;;;;3597533;39;20421;-80
2021/08/10 02:22:30;;;;;;;6.00;3.80;;;;;;;;;;3606830;39;20725;-79
2021/08/10 02:24:59;;;;;;;5.13;4.63;;;;;;;;;;3595412;39;20396;-79
2021/08/10 02:27:35;;;;;;;6.20;3.77;;;;;;;;;;3594987;39;21203;-79
2021/08/10 02:30:09;;;;;;;6.93;3.80;;;;;;;;;;3605196;39;21110;-80
2021/08/10 02:32:35;;;;;;;4.33;3.57;;;;;;;;;;3605137;39;20763;-80
2021/08/10 02:35:01;;;;;;;4.23;3.83;;;;;;;;;;3605732;39;21288;-79
2021/08/10 02:37:29;;;;;;;5.83;3.67;;;;;;;;;;3597577;39;20411;-79
2021/08/10 02:39:57;;;;;;;4.90;3.50;;;;;;;;;;3596723;39;20438;-79
2021/08/10 02:42:25;;;;;;;6.60;4.73;;;;;;;;;;3606253;39;20927;-79
2021/08/10 02:44:51;;;;;;;5.03;3.33;;;;;;;;;;3596629;39;20442;-79
2021/08/10 02:47:18;;;;;;;6.90;4.57;;;;;;;;;;3596425;39;20426;-80
2021/08/10 02:49:44;;;;;;;6.07;3.93;;;;;;;;;;3595018;39;20419;-79
2021/08/10 02:52:13;;;;;;;8.30;4.23;;;;;;;;;;3590211;39;20424;-80
2021/08/10 02:54:40;;;;;;;5.20;3.13;;;;;;;;;;3600986;39;20431;-78
2021/08/10 02:57:10;;;;;;;5.20;3.87;;;;;;;;;;3591414;39;20478;-78
2021/08/10 02:59:42;;;;;;;4.53;3.67;;;;;;;;;;3610781;39;20394;-78
2021/08/10 03:02:19;;;;;;;11.97;4.07;;;;;;;;;;3608834;39;20834;-78
2021/08/10 03:04:55;;;;;;;5.30;3.80;;;;;;;;;;3597925;39;20461;-78
2021/08/10 03:07:24;;;;;;;5.60;3.60;;;;;;;;;;3609316;39;20426;-78
2021/08/10 03:09:52;;;;;;;10.60;4.47;;;;;;;;;;3610762;39;20421;-78
2021/08/10 03:12:20;;;;;;;4.67;3.20;;;;;;;;;;3609669;39;20414;-78
2021/08/10 03:14:47;;;;;;;8.03;3.70;;;;;;;;;;3610652;39;20410;-78
2021/08/10 03:17:14;;;;;;;5.63;3.57;;;;;;;;;;3601075;39;20415;-78
2021/08/10 03:19:40;;;;;;;7.50;3.60;;;;;;;;;;3607940;39;20403;-78
2021/08/10 03:22:07;;;;;;;8.27;4.50;;;;;;;;;;3588826;39;20406;-78
2021/08/10 03:24:34;;;;;;;6.80;3.40;;;;;;;;;;3595535;39;20407;-78
2021/08/10 03:27:04;;;;;;;8.97;3.40;;;;;;;;;;3594816;39;20414;-78
2021/08/10 03:29:30;;;;;;;4.80;3.63;;;;;;;;;;3604092;39;20390;-78
2021/08/10 03:31:56;;;;;;;5.73;3.17;;;;;;;;;;3583924;39;20416;-78
2021/08/10 03:34:23;;;;;;;5.50;4.47;;;;;;;;;;3610002;39;20418;-78
2021/08/10 03:36:50;;;;;;;9.63;4.10;;;;;;;;;;3603701;39;20454;-79
2021/08/10 03:39:17;;;;;;;9.37;3.83;;;;;;;;;;3604673;39;20443;-79
2021/08/10 03:41:44;;;;;;;5.80;3.50;;;;;;;;;;3597340;39;20403;-79
2021/08/10 03:44:11;;;;;;;8.97;3.83;;;;;;;;;;3604558;39;20402;-78
2021/08/10 03:46:37;;;;;;;5.43;3.87;;;;;;;;;;3609783;39;20387;-78
2021/08/10 03:49:03;;;;;;;6.83;4.17;;;;;;;;;;3598740;39;21119;-79
2021/08/10 03:51:31;;;;;;;7.37;5.00;;;;;;;;;;3606392;39;20410;-79
2021/08/10 03:54:00;;;;;;;4.23;3.23;;;;;;;;;;3608578;39;20411;-79
2021/08/10 03:56:27;;;;;;;6.70;3.57;;;;;;;;;;3599692;39;20433;-79
2021/08/10 03:59:20;;;;;;;6.97;4.57;;;;;;;;;;3603646;39;20396;-79
2021/08/10 04:01:47;;;;;;;8.93;4.20;;;;;;;;;;3605315;39;20403;-80
2021/08/10 04:04:19;;;;;;;5.80;3.70;;;;;;;;;;3599775;39;20438;-80
2021/08/10 04:06:45;;;;;;;6.73;4.40;;;;;;;;;;3604691;39;20431;-80
2021/08/10 04:09:12;;;;;;;5.83;4.10;;;;;;;;;;3614834;39;20386;-80
2021/08/10 04:11:39;;;;;;;5.70;4.20;;;;;;;;;;3603503;39;20548;-79
2021/08/10 04:14:09;;;;;;;6.30;4.83;;;;;;;;;;3594793;39;20452;-79
2021/08/10 04:16:51;;;;;;;7.30;4.73;;;;;;;;;;3602209;39;20407;-80
2021/08/10 04:19:19;;;;;;;9.60;6.27;;;;;;;;;;3616154;39;20389;-80
2021/08/10 04:21:45;;;;;;;7.90;6.10;;;;;;;;;;3609032;39;20425;-80
2021/08/10 04:24:12;;;;;;;12.07;6.77;;;;;;;;;;3594735;39;20411;-80
2021/08/10 04:26:39;;;;;;;8.10;5.70;;;;;;;;;;3605399;39;20465;-79
2021/08/10 04:29:05;;;;;;;7.60;6.13;;;;;;;;;;3604527;39;20395;-79
2021/08/10 04:31:32;;;;;;;6.03;4.53;;;;;;;;;;3603367;39;20408;-79
2021/08/10 04:33:59;;;;;;;5.80;4.23;;;;;;;;;;3614966;39;20394;-79
2021/08/10 04:36:25;;;;;;;7.90;4.70;;;;;;;;;;3585299;39;20533;-80
2021/08/10 04:38:51;;;;;;;6.43;4.10;;;;;;;;;;3593000;39;20738;-79
2021/08/10 04:41:17;;;;;;;9.50;4.83;;;;;;;;;;3586085;39;20406;-79
2021/08/10 04:43:43;;;;;;;6.40;4.10;;;;;;;;;;3615464;39;20465;-79
2021/08/10 04:46:09;;;;;;;5.93;4.70;;;;;;;;;;3596885;39;20424;-79
2021/08/10 04:48:35;;;;;;;8.23;5.43;;;;;;;;;;3597338;39;20390;-80
2021/08/10 04:51:01;;;;;;;7.77;5.40;;;;;;;;;;3605109;39;20468;-79
2021/08/10 04:53:27;;;;;;;6.63;4.87;;;;;;;;;;3599625;39;20423;-79
2021/08/10 04:55:54;;;;;;;7.50;5.33;;;;;;;;;;3605610;39;20602;-79
2021/08/10 04:58:21;;;;;;;12.23;6.30;;;;;;;;;;3597470;39;20454;-79
2021/08/10 05:00:50;;;;;;;8.40;5.50;;;;;;;;;;3605415;39;20410;-79
2021/08/10 05:03:17;;;;;;;6.53;5.20;;;;;;;;;;3590058;39;20456;-79
2021/08/10 05:05:43;;;;;;;5.47;4.20;;;;;;;;;;3598997;39;21232;-79
2021/08/10 05:08:10;;;;;;;7.97;5.27;;;;;;;;;;3594263;40;20405;-79
2021/08/10 05:10:36;;;;;;;9.40;4.47;;;;;;;;;;3592084;40;20411;-79
2021/08/10 05:13:03;;;;;;;5.70;4.73;;;;;;;;;;3592561;40;20469;-79
2021/08/10 05:15:30;;;;;;;8.60;6.17;;;;;;;;;;3591079;40;20758;-81
2021/08/10 05:17:59;;;;;;;14.47;7.20;;;;;;;;;;3575674;40;20398;-79
2021/08/10 05:20:25;;;;;;;12.20;6.00;;;;;;;;;;3581267;39;20413;-79
2021/08/10 05:22:51;;;;;;;9.53;5.73;;;;;;;;;;3587284;40;20416;-80
2021/08/10 05:25:18;;;;;;;11.50;6.00;;;;;;;;;;3577765;39;20412;-79
2021/08/10 05:27:44;;;;;;;9.50;6.80;;;;;;;;;;3595818;39;20387;-80
2021/08/10 05:30:15;;;;;;;8.30;6.10;;;;;;;;;;3595238;39;20417;-79
2021/08/10 05:32:42;;;;;;;8.13;5.20;;;;;;;;;;3592156;39;20455;-79
2021/08/10 05:35:08;;;;;;;8.80;6.80;;;;;;;;;;3593625;39;20383;-80
2021/08/10 05:37:34;;;;;;;8.20;6.47;;;;;;;;;;3593459;39;20430;-79
2021/08/10 05:40:01;;;;;;;7.93;5.33;;;;;;;;;;3592813;39;20397;-79
2021/08/10 05:42:28;;;;;;;8.07;5.33;;;;;;;;;;3587162;39;20470;-80
2021/08/10 05:44:55;;;;;;;8.70;5.17;;;;;;;;;;3591303;39;21093;-79
2021/08/10 05:47:23;;;;;;;8.90;4.57;;;;;;;;;;3586467;39;20444;-79
2021/08/10 05:49:55;;;;;;;6.10;4.53;;;;;;;;;;3583174;39;20481;-79
2021/08/10 05:52:21;;;;;;;6.53;4.60;;;;;;;;;;3595135;39;20456;-78
2021/08/10 05:54:47;;;;;;;5.53;4.40;;;;;;;;;;3586588;39;20444;-79
2021/08/10 05:57:15;;;;;;;6.67;5.30;;;;;;;;;;3595800;39;20541;-79
2021/08/10 05:59:41;;;;;;;9.10;4.60;;;;;;;;;;3579734;39;20403;-79
2021/08/10 06:02:12;;;;;;;6.83;4.80;;;;;;;;;;3589320;39;20410;-79
2021/08/10 06:04:57;;;;;;;5.37;3.73;;;;;;;;;;3594739;39;20420;-79
2021/08/10 06:07:23;;;;;;;6.30;4.57;;;;;;;;;;3584843;40;21170;-79
2021/08/10 06:09:49;;;;;;;5.33;4.53;;;;;;;;;;3596333;39;20544;-80
2021/08/10 06:12:15;;;;;;;8.80;5.10;;;;;;;;;;3603562;39;20475;-79
2021/08/10 06:14:41;;;;;;;7.30;4.40;;;;;;;;;;3581228;39;20492;-79
2021/08/10 06:17:07;;;;;;;6.40;4.50;;;;;;;;;;3582794;40;20388;-80
2021/08/10 06:19:35;;;;;;;9.57;5.50;;;;;;;;;;3587796;39;20446;-79
2021/08/10 06:22:01;;;;;;;6.23;4.13;;;;;;;;;;3580319;40;20419;-79
2021/08/10 06:24:31;;;;;;;7.30;4.73;;;;;;;;;;3605733;39;20443;-79
2021/08/10 06:26:58;;;;;;;7.83;4.07;;;;;;;;;;3598725;39;20400;-79
2021/08/10 06:29:24;;;;;;;8.00;4.07;;;;;;;;;;3581643;39;20447;-79
2021/08/10 06:31:53;;;;;;;4.90;4.40;;;;;;;;;;3592941;39;21209;-79
2021/08/10 06:34:20;;;;;;;9.17;5.00;;;;;;;;;;3598442;39;20419;-79
2021/08/10 06:36:46;;;;;;;6.13;4.40;;;;;;;;;;3580834;39;20525;-79
2021/08/10 06:39:12;;;;;;;14.47;5.60;;;;;;;;;;3597432;39;20420;-79
2021/08/10 06:41:39;;;;;;;6.43;3.47;;;;;;;;;;3602504;39;20421;-79
2021/08/10 06:44:06;;;;;;;8.00;4.70;;;;;;;;;;3583264;39;21191;-79
2021/08/10 06:46:32;;;;;;;6.93;4.87;;;;;;;;;;3593838;39;20488;-78
2021/08/10 06:48:59;;;;;;;4.93;3.70;;;;;;;;;;3602165;39;20414;-79
2021/08/10 06:51:26;;;;;;;5.60;4.27;;;;;;;;;;3595047;39;20438;-79
2021/08/10 06:53:52;;;;;;;4.87;3.33;;;;;;;;;;3603058;39;20552;-78
2021/08/10 06:56:19;;;;;;;6.30;4.10;;;;;;;;;;3587637;39;20785;-78
2021/08/10 06:58:45;;;;;;;6.60;4.43;;;;;;;;;;3574779;39;20397;-78
2021/08/10 07:01:11;;;;;;;4.70;3.97;;;;;;;;;;3588371;39;20462;-78
2021/08/10 07:03:37;;;;;;;4.37;3.63;;;;;;;;;;3586038;39;20421;-78
2021/08/10 07:06:03;;;;;;;10.30;4.60;;;;;;;;;;3588596;39;20410;-79
2021/08/10 07:08:29;;;;;;;7.37;4.23;;;;;;;;;;3611858;39;20397;-78
2021/08/10 07:10:56;;;;;;;4.13;3.70;;;;;;;;;;3594458;39;20417;-81
2021/08/10 07:13:22;;;;;;;4.70;4.20;;;;;;;;;;3601754;39;20410;-78
2021/08/10 07:15:48;;;;;;;6.53;4.17;;;;;;;;;;3609989;39;21134;-77
2021/08/10 07:18:14;;;;;;;5.07;3.40;;;;;;;;;;3604102;39;20420;-77
2021/08/10 07:20:43;;;;;;;7.77;3.80;;;;;;;;;;3610924;39;20447;-79
2021/08/10 07:23:09;;;;;;;5.30;4.10;;;;;;;;;;3603240;39;20583;-78
2021/08/10 07:25:36;;;;;;;7.93;3.50;;;;;;;;;;3583333;39;20402;-79
2021/08/10 07:28:02;;;;;;;5.43;4.03;;;;;;;;;;3609428;39;20440;-77
2021/08/10 07:30:29;;;;;;;5.67;3.53;;;;;;;;;;3600208;39;20440;-78
2021/08/10 07:32:55;;;;;;;7.33;3.30;;;;;;;;;;3595829;39;20468;-78
2021/08/10 07:35:21;;;;;;;6.23;3.43;;;;;;;;;;3605676;39;20401;-78
2021/08/10 07:37:48;;;;;;;7.90;3.90;;;;;;;;;;3594942;39;21160;-78
2021/08/10 07:40:20;;;;;;;8.40;3.17;;;;;;;;;;3594629;39;20513;-78
2021/08/10 07:42:53;;;;;;;4.47;3.37;;;;;;;;;;3602077;39;20410;-78
2021/08/10 07:45:19;;;;;;;5.17;3.90;;;;;;;;;;3611850;39;20392;-78
2021/08/10 07:47:45;;;;;;;4.30;3.70;;;;;;;;;;3602249;39;20417;-78
2021/08/10 07:50:13;;;;;;;4.40;3.30;;;;;;;;;;3612858;39;20468;-79
2021/08/10 07:52:39;;;;;;;3.57;3.27;;;;;;;;;;3612105;39;20417;-79
2021/08/10 07:55:05;;;;;;;5.20;3.10;;;;;;;;;;3605108;39;20407;-78
2021/08/10 07:57:31;;;;;;;4.70;3.23;;;;;;;;;;3616662;39;20413;-79
2021/08/10 07:59:57;;;;;;;7.27;3.80;;;;;;;;;;3605551;39;20468;-79
2021/08/10 08:02:25;;;;;;;4.13;2.97;;;;;;;;;;3600670;39;20569;-79
2021/08/10 08:04:52;;;;;;;5.97;2.70;;;;;;;;;;3608465;39;20409;-78
2021/08/10 08:07:18;;;;;;;4.23;3.50;;;;;;;;;;3604687;39;20413;-79
2021/08/10 08:09:44;;;;;;;4.00;3.17;;;;;;;;;;3613630;39;20450;-78
2021/08/10 08:12:11;;;;;;;6.50;3.33;;;;;;;;;;3600936;39;21239;-79
2021/08/10 08:14:39;;;;;;;7.17;3.50;;;;;;;;;;3603193;39;20909;-78
2021/08/10 08:17:05;;;;;;;3.80;2.93;;;;;;;;;;3597094;39;20482;-78
2021/08/10 08:19:38;;;;;;;3.97;3.47;;;;;;;;;;3599655;39;20429;-78
2021/08/10 08:22:04;;;;;;;6.43;4.00;;;;;;;;;;3605344;39;20495;-78
2021/08/10 08:24:31;;;;;;;5.50;4.20;;;;;;;;;;3595441;39;20461;-78
2021/08/10 08:26:57;;;;;;;5.40;3.80;;;;;;;;;;3614595;39;20436;-78
2021/08/10 08:29:23;;;;;;;6.20;3.63;;;;;;;;;;3604755;39;21023;-78
2021/08/10 08:31:49;;;;;;;6.00;3.90;;;;;;;;;;3593499;39;20442;-78
2021/08/10 08:34:16;;;;;;;7.87;4.90;;;;;;;;;;3595310;39;20381;-78
2021/08/10 08:36:51;;;;;;;5.70;4.90;;;;;;;;;;3611519;39;20409;-78
2021/08/10 08:39:17;;;;;;;5.17;4.67;;;;;;;;;;3605360;39;20411;-78
2021/08/10 08:41:45;;;;;;;10.10;6.30;;;;;;;;;;3599738;39;20427;-78
2021/08/10 08:44:16;;;;;;;8.70;6.20;;;;;;;;;;3597056;39;20411;-81
2021/08/10 08:46:42;;;;;;;9.87;6.83;;;;;;;;;;3594510;39;20397;-79
2021/08/10 08:49:13;;;;;;;9.57;7.87;;;;;;;;;;3601458;39;20416;-78
2021/08/10 08:51:41;;;;;;;7.83;7.13;;;;;;;;;;3602917;39;20412;-78
2021/08/10 08:54:07;;;;;;;7.20;6.50;;;;;;;;;;3596488;39;20392;-79
2021/08/10 08:56:33;;;;;;;9.57;6.57;;;;;;;;;;3599874;39;20422;-79
2021/08/10 08:58:59;;;;;;;8.43;7.73;;;;;;;;;;3595400;39;20421;-79
2021/08/10 09:01:26;;;;;;;6.60;6.07;;;;;;;;;;3589831;39;20416;-79
2021/08/10 09:03:52;;;;;;;7.90;5.70;;;;;;;;;;3601864;39;20442;-78
2021/08/10 09:06:18;;;;;;;6.70;6.10;;;;;;;;;;3611382;39;20469;-79
2021/08/10 09:08:47;;;;;;;5.00;4.67;;;;;;;;;;3602438;39;20422;-78
2021/08/10 09:11:20;;;;;;;6.53;6.03;;;;;;;;;;3591553;39;20507;-78
2021/08/10 09:13:55;;;;;;;6.50;5.50;;;;;;;;;;3594395;39;20488;-79
2021/08/10 09:16:21;;;;;;;5.20;4.70;;;;;;;;;;3611788;39;20421;-78
2021/08/10 09:18:47;;;;;;;6.90;5.17;;;;;;;;;;3604044;39;20436;-79
2021/08/10 09:21:15;;;;;;;5.13;4.63;;;;;;;;;;3593494;39;20528;-78
2021/08/10 09:23:44;;;;;;;5.57;5.07;;;;;;;;;;3602392;39;20424;-78
2021/08/10 09:26:11;;;;;;;6.93;5.23;;;;;;;;;;3604060;39;20410;-78
2021/08/10 09:28:38;;;;;;;4.43;3.40;;;;;;;;;;3594616;39;20465;-79
2021/08/10 09:31:23;;;;;;;4.77;3.43;;;;;;;;;;3593720;39;20457;-78
2021/08/10 09:33:49;;;;;;;5.10;3.50;;;;;;;;;;3601895;39;20545;-77
2021/08/10 09:36:21;;;;;;;5.63;3.83;;;;;;;;;;3595640;39;20422;-78
2021/08/10 09:38:48;;;;;;;4.07;3.07;;;;;;;;;;3611745;39;20419;-78
2021/08/10 09:41:17;;;;;;;4.53;3.83;;;;;;;;;;3610870;39;20425;-78
2021/08/10 09:43:43;;;;;;;7.60;4.40;;;;;;;;;;3591297;39;20389;-78
2021/08/10 09:46:16;;;;;;;4.33;3.90;;;;;;;;;;3609491;39;20415;-78
2021/08/10 09:49:02;;;;;;;9.50;5.70;;;;;;;;;;3603164;39;20415;-78
2021/08/10 09:51:31;;;;;;;4.70;3.80;;;;;;;;;;3601087;39;20414;-78
2021/08/10 09:54:00;;;;;;;4.90;4.03;;;;;;;;;;3610032;39;20436;-78
2021/08/10 09:56:37;;;;;;;5.87;4.20;;;;;;;;;;3608176;39;20461;-78
2021/08/10 09:59:04;;;;;;;7.40;3.80;;;;;;;;;;3601445;39;20413;-78
2021/08/10 10:01:31;;;;;;;5.10;3.80;;;;;;;;;;3592211;39;20419;-78
2021/08/10 10:04:17;;;;;;;5.67;3.27;;;;;;;;;;3608949;39;20417;-78
2021/08/10 10:06:44;;;;;;;6.73;4.80;;;;;;;;;;3591660;39;20409;-78
2021/08/10 10:09:12;;;;;;;4.80;3.97;;;;;;;;;;3599728;39;20415;-78
2021/08/10 10:11:39;;;;;;;8.63;3.50;;;;;;;;;;3598578;39;20404;-78
2021/08/10 10:14:06;;;;;;;6.60;5.63;;;;;;;;;;3603518;39;20399;-79
2021/08/10 10:16:33;;;;;;;5.50;4.33;;;;;;;;;;3609543;39;20415;-78
2021/08/10 10:19:05;;;;;;;4.57;4.17;;;;;;;;;;3599182;39;20430;-78
2021/08/10 10:21:31;;;;;;;5.07;4.57;;;;;;;;;;3609813;39;20430;-78
2021/08/10 10:24:01;;;;;;;4.60;4.20;;;;;;;;;;3606048;39;20404;-78
2021/08/10 10:26:29;;;;;;;6.63;4.67;;;;;;;;;;3610443;39;20445;-78
2021/08/10 10:28:55;;;;;;;8.60;5.13;;;;;;;;;;3592562;39;20433;-78
2021/08/10 10:31:21;;;;;;;6.77;4.80;;;;;;;;;;3610228;39;20432;-78
2021/08/10 10:33:49;;;;;;;5.87;5.47;;;;;;;;;;3608825;39;20405;-78
2021/08/10 10:36:15;;;;;;;5.63;5.20;;;;;;;;;;3611240;39;20388;-78
2021/08/10 10:38:42;;;;;;;5.80;5.30;;;;;;;;;;3610605;39;20422;-78
2021/08/10 10:41:09;;;;;;;5.37;4.83;;;;;;;;;;3601618;39;20430;-78
2021/08/10 10:43:36;;;;;;;5.47;4.80;;;;;;;;;;3592829;39;20389;-78
2021/08/10 10:46:21;;;;;;;4.57;4.00;;;;;;;;;;3609238;39;20418;-78
2021/08/10 10:48:47;;;;;;;4.33;3.87;;;;;;;;;;3602500;39;20409;-78
2021/08/10 10:51:15;;;;;;;4.87;4.47;;;;;;;;;;3603138;39;20406;-78
2021/08/10 10:53:44;;;;;;;7.40;6.70;;;;;;;;;;3610954;39;20421;-78
2021/08/10 10:56:27;;;;;;;6.53;5.93;;;;;;;;;;3611157;39;20451;-78
2021/08/10 10:59:15;;;;;;;5.40;3.80;;;;;;;;;;3604655;39;20474;-79
2021/08/10 11:01:41;;;;;;;5.00;4.50;;;;;;;;;;3601512;39;20412;-79
2021/08/10 11:04:08;;;;;;;7.50;4.90;;;;;;;;;;3610900;39;20413;-78
2021/08/10 11:06:34;;;;;;;4.77;4.27;;;;;;;;;;3598653;39;20433;-78
2021/08/10 11:09:01;;;;;;;4.77;4.37;;;;;;;;;;3598031;39;20896;-78
2021/08/10 11:11:46;;;;;;;5.30;4.57;;;;;;;;;;3598717;39;20418;-78
2021/08/10 11:14:31;;;;;;;5.70;4.33;;;;;;;;;;3594962;39;20486;-78
2021/08/10 11:17:18;;;;;;;5.80;5.40;;;;;;;;;;3601950;39;20452;-78
2021/08/10 11:19:49;;;;;;;5.70;5.30;;;;;;;;;;3605858;39;20413;-79
2021/08/10 11:22:17;;;;;;;8.23;7.10;;;;;;;;;;3613408;39;20415;-78
2021/08/10 11:24:44;;;;;;;5.97;5.57;;;;;;;;;;3600773;39;20504;-78
2021/08/10 11:27:29;;;;;;;6.30;4.33;;;;;;;;;;3600392;39;20402;-78
2021/08/10 11:29:55;;;;;;;5.07;4.60;;;;;;;;;;3603170;39;20412;-78
2021/08/10 11:32:35;;;;;;;8.53;7.77;;;;;;;;;;3603666;39;20421;-78
2021/08/10 11:35:21;;;;;;;6.80;5.73;;;;;;;;;;3610074;39;20405;-79
2021/08/10 11:38:11;;;;;;;6.73;5.87;;;;;;;;;;3600991;39;20417;-78
2021/08/10 11:40:56;;;;;;;7.20;6.60;;;;;;;;;;3611651;39;20454;-80
2021/08/10 11:43:42;;;;;;;7.30;6.30;;;;;;;;;;3610749;39;21227;-78
2021/08/10 11:46:20;;;;;;;6.60;5.90;;;;;;;;;;3603607;39;21727;-79
2021/08/10 11:48:49;;;;;;;7.67;6.97;;;;;;;;;;3608446;39;20408;-78
2021/08/10 11:51:37;;;;;;;5.87;5.37;;;;;;;;;;3603677;39;20632;-79
2021/08/10 11:54:23;;;;;;;7.13;5.57;;;;;;;;;;3604707;39;20420;-78
2021/08/10 11:56:53;;;;;;;7.00;5.80;;;;;;;;;;3603794;39;20437;-78
2021/08/10 11:59:20;;;;;;;7.47;6.73;;;;;;;;;;3598005;39;20476;-78
2021/08/10 12:01:46;;;;;;;6.33;5.43;;;;;;;;;;3608795;39;20523;-78
2021/08/10 12:04:16;;;;;;;6.80;4.50;;;;;;;;;;3608622;39;20442;-78
2021/08/10 12:06:43;;;;;;;5.40;5.00;;;;;;;;;;3593323;39;20424;-78
2021/08/10 12:09:12;;;;;;;5.10;4.53;;;;;;;;;;3600778;39;20427;-79
2021/08/10 12:11:39;;;;;;;6.00;5.50;;;;;;;;;;3601387;39;20411;-79
2021/08/10 12:14:13;;;;;;;7.20;4.37;;;;;;;;;;3608508;39;20404;-79
2021/08/10 12:16:40;;;;;;;3.50;3.20;;;;;;;;;;3601713;39;20426;-78
2021/08/10 12:19:06;;;;;;;4.23;3.93;;;;;;;;;;3592224;39;21288;-79
2021/08/10 12:21:42;;;;;;;4.60;3.23;;;;;;;;;;3595055;39;20406;-79
2021/08/10 12:24:08;;;;;;;5.57;5.17;;;;;;;;;;3599297;39;20418;-80
2021/08/10 12:26:34;;;;;;;2.93;2.60;;;;;;;;;;3609502;39;20393;-79
2021/08/10 12:29:01;;;;;;;3.33;3.03;;;;;;;;;;3595550;39;20417;-78
2021/08/10 12:31:28;;;;;;;5.77;5.27;;;;;;;;;;3605452;39;20408;-78
2021/08/10 12:33:56;;;;;;;4.83;4.50;;;;;;;;;;3611593;39;20473;-78
2021/08/10 12:36:22;;;;;;;6.70;5.40;;;;;;;;;;3592249;39;20393;-78
2021/08/10 12:38:50;;;;;;;4.77;4.37;;;;;;;;;;3593803;39;20441;-79
2021/08/10 12:41:26;;;;;;;5.33;5.03;;;;;;;;;;3593954;39;20414;-78
2021/08/10 12:43:56;;;;;;;4.70;4.40;;;;;;;;;;3601318;39;20406;-79
2021/08/10 12:46:30;;;;;;;4.43;4.10;;;;;;;;;;3592398;39;20490;-79
2021/08/10 12:49:07;;;;;;;8.13;3.97;;;;;;;;;;3611462;39;20418;-79
2021/08/10 12:51:52;;;;;;;3.97;3.40;;;;;;;;;;3609250;39;20405;-80
2021/08/10 12:54:18;;;;;;;3.50;3.20;;;;;;;;;;3610669;39;20405;-79
2021/08/10 12:56:44;;;;;;;4.20;3.80;;;;;;;;;;3594764;39;20430;-79
2021/08/10 12:59:10;;;;;;;4.40;4.10;;;;;;;;;;3602157;39;20464;-78
2021/08/10 13:01:41;;;;;;;4.73;4.23;;;;;;;;;;3593975;39;20419;-79
2021/08/10 13:04:08;;;;;;;4.30;3.90;;;;;;;;;;3602686;39;20460;-78
2021/08/10 13:06:34;;;;;;;4.03;3.63;;;;;;;;;;3607432;39;21084;-79
2021/08/10 13:09:02;;;;;;;4.10;3.80;;;;;;;;;;3601459;39;21154;-78
2021/08/10 13:11:31;;;;;;;4.70;3.40;;;;;;;;;;3600890;39;20821;-78
2021/08/10 13:14:04;;;;;;;3.40;3.10;;;;;;;;;;3611671;39;20413;-78
2021/08/10 13:16:34;;;;;;;3.20;3.00;;;;;;;;;;3587464;39;20849;-79
2021/08/10 13:19:13;;;;;;;3.17;2.87;;;;;;;;;;3611472;39;20410;-78
2021/08/10 13:21:43;;;;;;;4.20;3.73;;;;;;;;;;3611790;39;20426;-79
2021/08/10 13:24:10;;;;;;;5.00;3.90;;;;;;;;;;3603055;39;20454;-79
2021/08/10 13:27:05;;;;;;;5.03;3.23;;;;;;;;;;3596884;39;21005;-79
2021/08/10 13:29:39;;;;;;;3.37;3.07;;;;;;;;;;3588769;39;20399;-78
2021/08/10 13:32:15;;;;;;;6.23;4.27;;;;;;;;;;3602901;39;20413;-78
2021/08/10 13:34:46;;;;;;;5.30;4.50;;;;;;;;;;3599883;39;20405;-78
2021/08/10 13:37:12;;;;;;;4.50;4.10;;;;;;;;;;3589948;39;20391;-80
2021/08/10 13:39:40;;;;;;;9.43;5.10;;;;;;;;;;3605469;39;20407;-79
2021/08/10 13:42:06;;;;;;;5.00;4.50;;;;;;;;;;3605518;39;20421;-79
2021/08/10 13:44:32;;;;;;;5.30;4.80;;;;;;;;;;3594770;39;20426;-79
2021/08/10 13:46:58;;;;;;;6.90;5.37;;;;;;;;;;3604164;39;20470;-78
2021/08/10 13:49:25;;;;;;;5.53;4.97;;;;;;;;;;3606493;39;20447;-78
2021/08/10 13:51:52;;;;;;;6.90;5.37;;;;;;;;;;3591620;39;20410;-79
2021/08/10 13:54:20;;;;;;;5.50;5.00;;;;;;;;;;3588979;39;20452;-79
2021/08/10 13:56:46;;;;;;;6.47;5.40;;;;;;;;;;3606680;39;20442;-79
2021/08/10 13:59:12;;;;;;;8.70;5.80;;;;;;;;;;3604093;39;20441;-79
2021/08/10 14:01:47;;;;;;;6.70;5.63;;;;;;;;;;3605440;39;20459;-78
2021/08/10 14:04:14;;;;;;;8.60;5.33;;;;;;;;;;3603662;39;20419;-79
2021/08/10 14:06:40;;;;;;;5.80;4.63;;;;;;;;;;3603902;39;20415;-79
2021/08/10 14:09:06;;;;;;;7.67;4.77;;;;;;;;;;3585982;40;20421;-79
2021/08/10 14:11:32;;;;;;;5.93;5.37;;;;;;;;;;3582563;40;21116;-78
2021/08/10 14:13:58;;;;;;;5.20;4.70;;;;;;;;;;3582863;40;20429;-78
2021/08/10 14:16:25;;;;;;;7.83;6.07;;;;;;;;;;3581374;40;20712;-78
2021/08/10 14:18:53;;;;;;;5.73;5.13;;;;;;;;;;3571197;40;20409;-80
2021/08/10 14:21:19;;;;;;;7.17;5.87;;;;;;;;;;3590154;40;20480;-79
2021/08/10 14:23:46;;;;;;;7.20;6.40;;;;;;;;;;3586990;39;20813;-79
2021/08/10 14:26:13;;;;;;;6.53;5.73;;;;;;;;;;3591584;39;20412;-80
2021/08/10 14:28:41;;;;;;;6.00;5.50;;;;;;;;;;3599067;39;21107;-79
2021/08/10 14:31:12;;;;;;;12.17;6.80;;;;;;;;;;3591596;39;20405;-79
2021/08/10 14:33:38;;;;;;;8.77;6.80;;;;;;;;;;3594487;39;20416;-79
2021/08/10 14:36:04;;;;;;;7.90;7.13;;;;;;;;;;3595414;39;20391;-79
2021/08/10 14:38:30;;;;;;;7.63;6.83;;;;;;;;;;3585558;39;20409;-79
2021/08/10 14:40:56;;;;;;;7.37;6.63;;;;;;;;;;3590483;39;20749;-78
2021/08/10 14:43:24;;;;;;;8.53;5.40;;;;;;;;;;3591160;39;20416;-78
2021/08/10 14:45:50;;;;;;;5.60;4.73;;;;;;;;;;3598725;39;20418;-78
2021/08/10 14:48:16;;;;;;;5.47;4.60;;;;;;;;;;3600843;39;20411;-78
2021/08/10 14:50:43;;;;;;;5.50;4.40;;;;;;;;;;3586205;39;20406;-78
2021/08/10 14:53:09;;;;;;;12.00;4.97;;;;;;;;;;3590571;39;20420;-78